sensor_id;sensor_type;location;lat;lon;timestamp;pressure;altitude;pressure_sealevel;temperature;humidity
13553;BME280;6847;48.830;9.116;2022-10-16T00:02:02;97811.16;;;19.67;68.69
13553;BME280;6847;48.830;9.116;2022-10-16T00:04:30;97800.59;;;19.69;68.56
13553;BME280;6847;48.830;9.116;2022-10-16T00:06:56;97793.84;;;19.66;68.68
13553;BME280;6847;48.830;9.116;2022-10-16T00:09:23;97801.97;;;19.63;68.72
13553;BME280;6847;48.830;9.116;2022-10-16T00:11:53;97796.69;;;19.57;68.81
13553;BME280;6847;48.830;9.116;2022-10-16T00:14:20;97791.06;;;19.54;68.96
13553;BME280;6847;48.830;9.116;2022-10-16T00:16:46;97789.78;;;19.51;68.79
13553;BME280;6847;48.830;9.116;2022-10-16T00:19:13;97785.16;;;19.43;68.86
13553;BME280;6847;48.830;9.116;2022-10-16T00:21:43;97800.78;;;19.51;68.87
13553;BME280;6847;48.830;9.116;2022-10-16T00:24:09;97800.78;;;19.51;68.87
13553;BME280;6847;48.830;9.116;2022-10-16T00:26:37;97794.81;;;19.49;68.56
13553;BME280;6847;48.830;9.116;2022-10-16T00:29:07;97792.91;;;19.41;68.77
13553;BME280;6847;48.830;9.116;2022-10-16T00:31:34;97798.88;;;19.43;69.09
13553;BME280;6847;48.830;9.116;2022-10-16T00:34:01;97797.28;;;19.42;69.01
13553;BME280;6847;48.830;9.116;2022-10-16T00:36:27;97800.69;;;19.39;68.92
13553;BME280;6847;48.830;9.116;2022-10-16T00:38:57;97794.94;;;19.32;68.93
13553;BME280;6847;48.830;9.116;2022-10-16T00:41:26;97810.53;;;19.40;68.85
13553;BME280;6847;48.830;9.116;2022-10-16T00:43:56;97803.56;;;19.43;69.02
13553;BME280;6847;48.830;9.116;2022-10-16T00:46:27;97813.09;;;19.45;69.01
13553;BME280;6847;48.830;9.116;2022-10-16T00:48:59;97809.34;;;19.50;68.65
13553;BME280;6847;48.830;9.116;2022-10-16T00:51:31;97800.91;;;19.55;68.60
13553;BME280;6847;48.830;9.116;2022-10-16T00:54:00;97800.09;;;19.54;68.63
13553;BME280;6847;48.830;9.116;2022-10-16T00:56:28;97794.63;;;19.54;68.44
13553;BME280;6847;48.830;9.116;2022-10-16T00:58:55;97753.28;;;19.18;68.55
13553;BME280;6847;48.830;9.116;2022-10-16T01:01:22;97808.22;;;19.51;68.77
13553;BME280;6847;48.830;9.116;2022-10-16T01:03:50;97818.84;;;19.52;68.55
13553;BME280;6847;48.830;9.116;2022-10-16T01:06:23;97820.47;;;19.53;68.30
13553;BME280;6847;48.830;9.116;2022-10-16T01:09:02;97824.16;;;19.57;68.39
13553;BME280;6847;48.830;9.116;2022-10-16T01:11:34;97820.72;;;19.61;68.50
13553;BME280;6847;48.830;9.116;2022-10-16T01:14:11;97823.94;;;19.63;68.29
13553;BME280;6847;48.830;9.116;2022-10-16T01:16:45;97802.78;;;19.42;68.18
13553;BME280;6847;48.830;9.116;2022-10-16T01:19:27;97830.38;;;19.67;68.42
13553;BME280;6847;48.830;9.116;2022-10-16T01:21:59;97818.69;;;19.70;68.41
13553;BME280;6847;48.830;9.116;2022-10-16T01:24:33;97809.78;;;19.73;68.31
13553;BME280;6847;48.830;9.116;2022-10-16T01:27:06;97822.38;;;19.74;68.15
13553;BME280;6847;48.830;9.116;2022-10-16T01:29:36;97814.13;;;19.74;68.37
13553;BME280;6847;48.830;9.116;2022-10-16T01:32:13;97781.56;;;19.51;68.30
13553;BME280;6847;48.830;9.116;2022-10-16T01:34:47;97813.47;;;19.77;68.47
13553;BME280;6847;48.830;9.116;2022-10-16T01:37:21;97809.59;;;19.78;68.71
13553;BME280;6847;48.830;9.116;2022-10-16T01:39:51;97787.75;;;19.61;68.49
13553;BME280;6847;48.830;9.116;2022-10-16T01:42:25;97813.72;;;19.84;68.32
13553;BME280;6847;48.830;9.116;2022-10-16T01:44:59;97807.88;;;19.85;68.28
13553;BME280;6847;48.830;9.116;2022-10-16T01:47:29;97811.91;;;19.88;68.22
13553;BME280;6847;48.830;9.116;2022-10-16T01:49:58;97810.06;;;19.92;68.22
13553;BME280;6847;48.830;9.116;2022-10-16T01:52:28;97813.28;;;19.94;68.13
13553;BME280;6847;48.830;9.116;2022-10-16T01:54:58;97808.25;;;19.96;67.81
13553;BME280;6847;48.830;9.116;2022-10-16T01:57:31;97803.91;;;19.95;68.00
13553;BME280;6847;48.830;9.116;2022-10-16T02:00:07;97801.34;;;19.90;67.73
13553;BME280;6847;48.830;9.116;2022-10-16T02:02:39;97797.22;;;19.84;67.95
13553;BME280;6847;48.830;9.116;2022-10-16T02:05:13;97800.31;;;19.82;68.03
13553;BME280;6847;48.830;9.116;2022-10-16T02:07:42;97801.78;;;19.80;67.94
13553;BME280;6847;48.830;9.116;2022-10-16T02:10:09;97807.97;;;19.77;67.81
13553;BME280;6847;48.830;9.116;2022-10-16T02:12:40;97801.53;;;19.73;67.97
13553;BME280;6847;48.830;9.116;2022-10-16T02:15:10;97795.81;;;19.66;67.90
13553;BME280;6847;48.830;9.116;2022-10-16T02:17:37;97796.47;;;19.63;67.73
13553;BME280;6847;48.830;9.116;2022-10-16T02:20:07;97760.19;;;19.36;67.91
13553;BME280;6847;48.830;9.116;2022-10-16T02:22:37;97801.81;;;19.59;67.88
13553;BME280;6847;48.830;9.116;2022-10-16T02:25:08;97811.22;;;19.58;67.84
13553;BME280;6847;48.830;9.116;2022-10-16T02:27:42;97811.56;;;19.56;67.59
13553;BME280;6847;48.830;9.116;2022-10-16T02:30:14;97805.78;;;19.49;67.96
13553;BME280;6847;48.830;9.116;2022-10-16T02:32:48;97798.22;;;19.46;67.69
13553;BME280;6847;48.830;9.116;2022-10-16T02:35:17;97800.50;;;19.44;67.97
13553;BME280;6847;48.830;9.116;2022-10-16T02:37:48;97734.41;;;18.96;68.11
13553;BME280;6847;48.830;9.116;2022-10-16T02:40:16;97800.91;;;19.34;68.08
13553;BME280;6847;48.830;9.116;2022-10-16T02:42:50;97800.91;;;19.34;68.04
13553;BME280;6847;48.830;9.116;2022-10-16T02:45:18;97730.53;;;18.97;68.02
13553;BME280;6847;48.830;9.116;2022-10-16T02:47:45;97809.19;;;19.46;68.06
13553;BME280;6847;48.830;9.116;2022-10-16T02:50:12;97795.19;;;19.39;67.78
13553;BME280;6847;48.830;9.116;2022-10-16T02:52:39;97810.94;;;19.51;67.99
13553;BME280;6847;48.830;9.116;2022-10-16T02:55:07;97815.91;;;19.57;67.92
13553;BME280;6847;48.830;9.116;2022-10-16T02:57:46;97822.31;;;19.62;67.94
13553;BME280;6847;48.830;9.116;2022-10-16T03:00:16;97826.00;;;19.66;67.74
13553;BME280;6847;48.830;9.116;2022-10-16T03:02:43;97824.19;;;19.70;67.98
13553;BME280;6847;48.830;9.116;2022-10-16T03:05:10;97817.69;;;19.74;67.62
13553;BME280;6847;48.830;9.116;2022-10-16T03:07:39;97807.25;;;19.68;67.91
13553;BME280;6847;48.830;9.116;2022-10-16T03:10:09;97820.63;;;19.69;67.73
13553;BME280;6847;48.830;9.116;2022-10-16T03:12:37;97817.63;;;19.62;67.63
13553;BME280;6847;48.830;9.116;2022-10-16T03:15:09;97826.44;;;19.55;67.80
13553;BME280;6847;48.830;9.116;2022-10-16T03:17:36;97830.50;;;19.49;67.54
13553;BME280;6847;48.830;9.116;2022-10-16T03:20:04;97825.19;;;19.44;67.92
13553;BME280;6847;48.830;9.116;2022-10-16T03:22:32;97826.09;;;19.36;67.93
13553;BME280;6847;48.830;9.116;2022-10-16T03:27:57;97826.34;;;19.22;68.04
13553;BME280;6847;48.830;9.116;2022-10-16T03:30:25;97818.34;;;19.17;68.01
13553;BME280;6847;48.830;9.116;2022-10-16T03:32:54;97821.66;;;19.23;67.95
13553;BME280;6847;48.830;9.116;2022-10-16T03:35:21;97820.06;;;19.22;67.85
13553;BME280;6847;48.830;9.116;2022-10-16T03:37:48;97806.72;;;19.12;67.75
13553;BME280;6847;48.830;9.116;2022-10-16T03:40:14;97826.56;;;19.17;67.71
13553;BME280;6847;48.830;9.116;2022-10-16T03:42:44;97821.41;;;19.16;67.98
13553;BME280;6847;48.830;9.116;2022-10-16T03:45:11;97812.69;;;19.14;67.76
13553;BME280;6847;48.830;9.116;2022-10-16T03:47:39;97826.63;;;19.09;67.69
13553;BME280;6847;48.830;9.116;2022-10-16T03:50:07;97829.56;;;19.04;67.74
13553;BME280;6847;48.830;9.116;2022-10-16T03:52:34;97823.81;;;18.97;68.14
13553;BME280;6847;48.830;9.116;2022-10-16T03:55:03;97823.00;;;18.96;67.83
13553;BME280;6847;48.830;9.116;2022-10-16T03:57:29;97824.94;;;18.96;68.09
13553;BME280;6847;48.830;9.116;2022-10-16T03:59:56;97831.56;;;18.95;68.04
13553;BME280;6847;48.830;9.116;2022-10-16T04:02:23;97821.94;;;18.89;67.95
13553;BME280;6847;48.830;9.116;2022-10-16T04:04:52;97830.50;;;18.87;67.93
13553;BME280;6847;48.830;9.116;2022-10-16T04:07:20;97813.34;;;18.69;67.88
13553;BME280;6847;48.830;9.116;2022-10-16T04:09:47;97819.50;;;18.87;67.84
13553;BME280;6847;48.830;9.116;2022-10-16T04:12:15;97829.69;;;18.87;67.94
13553;BME280;6847;48.830;9.116;2022-10-16T04:14:43;97829.19;;;18.84;67.84
13553;BME280;6847;48.830;9.116;2022-10-16T04:17:12;97826.00;;;18.82;67.67
13553;BME280;6847;48.830;9.116;2022-10-16T04:19:39;97823.94;;;18.79;67.66
13553;BME280;6847;48.830;9.116;2022-10-16T04:22:11;97814.00;;;18.66;67.88
13553;BME280;6847;48.830;9.116;2022-10-16T04:24:38;97824.59;;;18.76;67.79
13553;BME280;6847;48.830;9.116;2022-10-16T04:27:04;97817.16;;;18.77;67.62
13553;BME280;6847;48.830;9.116;2022-10-16T04:29:31;97832.47;;;18.78;67.81
13553;BME280;6847;48.830;9.116;2022-10-16T04:31:59;97824.59;;;18.76;67.75
13553;BME280;6847;48.830;9.116;2022-10-16T04:34:28;97830.88;;;18.77;67.71
13553;BME280;6847;48.830;9.116;2022-10-16T04:36:56;97842.16;;;18.75;67.93
13553;BME280;6847;48.830;9.116;2022-10-16T04:39:24;97839.44;;;18.75;67.64
13553;BME280;6847;48.830;9.116;2022-10-16T04:42:02;97840.22;;;18.76;67.74
13553;BME280;6847;48.830;9.116;2022-10-16T04:44:30;97835.56;;;18.76;67.73
13553;BME280;6847;48.830;9.116;2022-10-16T04:46:56;97840.38;;;18.79;67.91
13553;BME280;6847;48.830;9.116;2022-10-16T04:49:23;97848.63;;;18.79;67.55
13553;BME280;6847;48.830;9.116;2022-10-16T04:51:53;97844.72;;;18.80;67.70
13553;BME280;6847;48.830;9.116;2022-10-16T04:54:24;97856.16;;;18.82;67.60
13553;BME280;6847;48.830;9.116;2022-10-16T04:56:58;97860.84;;;18.82;67.43
13553;BME280;6847;48.830;9.116;2022-10-16T04:59:25;97865.53;;;18.81;67.60
13553;BME280;6847;48.830;9.116;2022-10-16T05:01:51;97854.53;;;18.81;67.92
13553;BME280;6847;48.830;9.116;2022-10-16T05:04:18;97867.13;;;18.82;67.76
13553;BME280;6847;48.830;9.116;2022-10-16T05:06:47;97867.13;;;18.82;67.79
13553;BME280;6847;48.830;9.116;2022-10-16T05:09:15;97867.13;;;18.82;67.94
13553;BME280;6847;48.830;9.116;2022-10-16T05:11:45;97873.41;;;18.83;67.72
13553;BME280;6847;48.830;9.116;2022-10-16T05:14:12;97868.75;;;18.83;67.52
13553;BME280;6847;48.830;9.116;2022-10-16T05:16:41;97864.38;;;18.82;67.96
13553;BME280;6847;48.830;9.116;2022-10-16T05:19:08;97867.94;;;18.83;67.67
13553;BME280;6847;48.830;9.116;2022-10-16T05:21:36;97852.16;;;18.80;67.78
13553;BME280;6847;48.830;9.116;2022-10-16T05:24:08;97861.16;;;18.80;68.03
13553;BME280;6847;48.830;9.116;2022-10-16T05:26:35;97859.09;;;18.77;67.77
13553;BME280;6847;48.830;9.116;2022-10-16T05:29:04;97842.22;;;18.67;68.01
13553;BME280;6847;48.830;9.116;2022-10-16T05:31:31;97862.03;;;18.72;67.98
13553;BME280;6847;48.830;9.116;2022-10-16T05:33:58;97776.81;;;18.19;67.92
13553;BME280;6847;48.830;9.116;2022-10-16T05:36:27;97864.16;;;18.67;68.30
13553;BME280;6847;48.830;9.116;2022-10-16T05:38:55;97871.09;;;18.64;67.83
13553;BME280;6847;48.830;9.116;2022-10-16T05:41:21;97877.22;;;18.61;68.30
13553;BME280;6847;48.830;9.116;2022-10-16T05:43:52;97871.31;;;18.59;68.12
13553;BME280;6847;48.830;9.116;2022-10-16T05:46:21;97868.88;;;18.58;68.33
13553;BME280;6847;48.830;9.116;2022-10-16T05:48:52;97874.03;;;18.59;68.04
13553;BME280;6847;48.830;9.116;2022-10-16T05:51:19;97876.44;;;18.61;68.35
13553;BME280;6847;48.830;9.116;2022-10-16T05:53:46;97885.47;;;18.61;67.98
13553;BME280;6847;48.830;9.116;2022-10-16T05:56:13;97839.28;;;18.34;68.40
13553;BME280;6847;48.830;9.116;2022-10-16T05:58:42;97895.13;;;18.67;67.98
13553;BME280;6847;48.830;9.116;2022-10-16T06:01:11;97889.44;;;18.72;67.95
13553;BME280;6847;48.830;9.116;2022-10-16T06:03:42;97892.03;;;18.77;67.87
13553;BME280;6847;48.830;9.116;2022-10-16T06:06:10;97903.91;;;18.81;68.10
13553;BME280;6847;48.830;9.116;2022-10-16T06:08:38;97898.59;;;18.85;67.88
13553;BME280;6847;48.830;9.116;2022-10-16T06:11:07;97899.88;;;18.88;67.90
13553;BME280;6847;48.830;9.116;2022-10-16T06:13:34;97903.44;;;18.88;67.81
13553;BME280;6847;48.830;9.116;2022-10-16T06:16:03;97899.56;;;18.89;68.05
13553;BME280;6847;48.830;9.116;2022-10-16T06:18:30;97909.50;;;18.94;67.72
13553;BME280;6847;48.830;9.116;2022-10-16T06:20:58;97899.66;;;18.93;67.75
13553;BME280;6847;48.830;9.116;2022-10-16T06:23:30;97906.38;;;19.04;67.63
13553;BME280;6847;48.830;9.116;2022-10-16T06:26:04;97917.38;;;19.04;68.01
13553;BME280;6847;48.830;9.116;2022-10-16T06:28:31;97909.94;;;19.04;68.02
13553;BME280;6847;48.830;9.116;2022-10-16T06:31:00;97892.56;;;18.92;67.98
13553;BME280;6847;48.830;9.116;2022-10-16T06:33:28;97910.53;;;19.10;67.92
13553;BME280;6847;48.830;9.116;2022-10-16T06:36:05;97903.13;;;19.10;67.88
13553;BME280;6847;48.830;9.116;2022-10-16T06:38:32;97912.63;;;19.13;67.89
13553;BME280;6847;48.830;9.116;2022-10-16T06:41:00;97908.56;;;19.19;67.79
13553;BME280;6847;48.830;9.116;2022-10-16T06:43:31;97898.91;;;19.13;68.01
13553;BME280;6847;48.830;9.116;2022-10-16T06:46:01;97895.03;;;19.14;67.72
13553;BME280;6847;48.830;9.116;2022-10-16T06:48:29;97935.91;;;19.36;67.84
13553;BME280;6847;48.830;9.116;2022-10-16T06:50:58;97933.41;;;19.43;67.63
13553;BME280;6847;48.830;9.116;2022-10-16T06:53:28;97945.34;;;19.47;67.45
13553;BME280;6847;48.830;9.116;2022-10-16T06:55:56;97943.56;;;19.51;67.58
13553;BME280;6847;48.830;9.116;2022-10-16T06:58:24;97913.00;;;19.32;67.65
13553;BME280;6847;48.830;9.116;2022-10-16T07:00:55;97943.84;;;19.58;67.67
13553;BME280;6847;48.830;9.116;2022-10-16T07:03:22;97953.50;;;19.65;67.72
13553;BME280;6847;48.830;9.116;2022-10-16T07:05:50;97952.16;;;19.71;67.57
13553;BME280;6847;48.830;9.116;2022-10-16T07:08:17;97958.03;;;19.81;67.43
13553;BME280;6847;48.830;9.116;2022-10-16T07:10:45;97959.09;;;19.89;67.57
13553;BME280;6847;48.830;9.116;2022-10-16T07:13:19;97962.88;;;20.05;67.33
13553;BME280;6847;48.830;9.116;2022-10-16T07:15:46;97971.84;;;20.14;67.18
13553;BME280;6847;48.830;9.116;2022-10-16T07:18:13;97970.94;;;20.22;67.22
13553;BME280;6847;48.830;9.116;2022-10-16T07:20:43;97978.63;;;20.29;67.27
13553;BME280;6847;48.830;9.116;2022-10-16T07:23:10;97978.75;;;20.32;67.21
13553;BME280;6847;48.830;9.116;2022-10-16T07:25:38;97988.75;;;20.37;67.24
13553;BME280;6847;48.830;9.116;2022-10-16T07:28:06;97982.94;;;20.39;67.17
13553;BME280;6847;48.830;9.116;2022-10-16T07:30:34;97995.53;;;20.40;67.10
13553;BME280;6847;48.830;9.116;2022-10-16T07:33:02;97995.44;;;20.36;67.14
13553;BME280;6847;48.830;9.116;2022-10-16T07:35:29;97998.50;;;20.35;67.33
13553;BME280;6847;48.830;9.116;2022-10-16T07:38:02;97999.16;;;20.31;67.41
13553;BME280;6847;48.830;9.116;2022-10-16T07:40:30;97994.78;;;20.30;67.61
13553;BME280;6847;48.830;9.116;2022-10-16T07:42:57;97979.19;;;20.22;67.24
13553;BME280;6847;48.830;9.116;2022-10-16T07:45:25;97993.66;;;20.31;67.24
13553;BME280;6847;48.830;9.116;2022-10-16T07:47:52;97996.88;;;20.33;67.37
13553;BME280;6847;48.830;9.116;2022-10-16T07:50:19;98001.38;;;20.38;67.31
13553;BME280;6847;48.830;9.116;2022-10-16T07:52:46;98007.25;;;20.37;67.33
13553;BME280;6847;48.830;9.116;2022-10-16T07:55:14;98007.25;;;20.37;67.36
13553;BME280;6847;48.830;9.116;2022-10-16T07:57:41;97984.03;;;20.25;67.43
13553;BME280;6847;48.830;9.116;2022-10-16T08:00:10;98013.22;;;20.51;67.25
13553;BME280;6847;48.830;9.116;2022-10-16T08:02:40;98014.41;;;20.62;67.26
13553;BME280;6847;48.830;9.116;2022-10-16T08:05:07;98015.34;;;20.78;67.14
13553;BME280;6847;48.830;9.116;2022-10-16T08:07:34;98017.94;;;20.95;66.89
13553;BME280;6847;48.830;9.116;2022-10-16T08:10:01;98017.25;;;21.11;66.86
13553;BME280;6847;48.830;9.116;2022-10-16T08:12:28;98017.41;;;21.26;66.66
13553;BME280;6847;48.830;9.116;2022-10-16T08:14:56;98019.56;;;21.45;66.39
13553;BME280;6847;48.830;9.116;2022-10-16T08:17:22;98018.97;;;21.76;66.18
13553;BME280;6847;48.830;9.116;2022-10-16T08:19:53;98025.00;;;22.18;65.86
13553;BME280;6847;48.830;9.116;2022-10-16T08:22:20;98033.06;;;22.67;65.16
13553;BME280;6847;48.830;9.116;2022-10-16T08:24:47;98029.47;;;23.41;64.16
13553;BME280;6847;48.830;9.116;2022-10-16T08:27:14;98042.66;;;23.79;63.68
13553;BME280;6847;48.830;9.116;2022-10-16T08:29:41;98054.84;;;23.94;63.86
13553;BME280;6847;48.830;9.116;2022-10-16T08:32:13;98008.50;;;23.72;64.23
13553;BME280;6847;48.830;9.116;2022-10-16T08:34:40;98053.31;;;23.96;64.56
13553;BME280;6847;48.830;9.116;2022-10-16T08:37:09;98053.16;;;23.89;64.76
13553;BME280;6847;48.830;9.116;2022-10-16T08:39:38;98058.06;;;23.80;65.07
13553;BME280;6847;48.830;9.116;2022-10-16T08:42:15;98052.81;;;23.75;65.22
13553;BME280;6847;48.830;9.116;2022-10-16T08:45:14;98047.75;;;23.77;65.18
13553;BME280;6847;48.830;9.116;2022-10-16T08:48:06;98059.59;;;23.78;65.23
13553;BME280;6847;48.830;9.116;2022-10-16T08:50:39;98056.84;;;23.78;65.46
13553;BME280;6847;48.830;9.116;2022-10-16T08:53:17;98055.31;;;23.80;65.44
13553;BME280;6847;48.830;9.116;2022-10-16T08:55:49;98054.44;;;23.76;65.47
13553;BME280;6847;48.830;9.116;2022-10-16T08:58:21;98016.38;;;23.38;65.20
13553;BME280;6847;48.830;9.116;2022-10-16T09:00:50;98046.50;;;23.43;65.66
13553;BME280;6847;48.830;9.116;2022-10-16T09:03:32;98053.53;;;23.41;65.57
13553;BME280;6847;48.830;9.116;2022-10-16T09:06:23;98056.47;;;23.32;65.58
13553;BME280;6847;48.830;9.116;2022-10-16T09:09:06;98054.81;;;23.28;65.60
13553;BME280;6847;48.830;9.116;2022-10-16T09:15:03;97969.25;;;22.84;65.24
13553;BME280;6847;48.830;9.116;2022-10-16T09:17:45;98052.47;;;23.61;64.73
13553;BME280;6847;48.830;9.116;2022-10-16T09:20:35;98070.78;;;24.01;63.95
13553;BME280;6847;48.830;9.116;2022-10-16T09:23:18;98079.38;;;24.30;63.58
13553;BME280;6847;48.830;9.116;2022-10-16T09:25:50;98080.72;;;24.56;63.20
13553;BME280;6847;48.830;9.116;2022-10-16T09:28:18;98072.03;;;24.96;62.48
13553;BME280;6847;48.830;9.116;2022-10-16T09:30:52;98083.91;;;24.96;62.57
13553;BME280;6847;48.830;9.116;2022-10-16T09:33:24;98084.72;;;24.97;62.65
13553;BME280;6847;48.830;9.116;2022-10-16T09:35:53;98083.31;;;25.06;62.69
13553;BME280;6847;48.830;9.116;2022-10-16T09:38:22;98083.09;;;24.96;62.61
13553;BME280;6847;48.830;9.116;2022-10-16T09:40:52;98086.25;;;24.94;62.63
13553;BME280;6847;48.830;9.116;2022-10-16T09:43:22;98089.94;;;25.02;62.64
13553;BME280;6847;48.830;9.116;2022-10-16T09:45:57;98084.84;;;25.04;62.56
13553;BME280;6847;48.830;9.116;2022-10-16T09:48:27;98091.06;;;25.20;62.26
13553;BME280;6847;48.830;9.116;2022-10-16T09:50:57;98096.66;;;25.47;61.70
13553;BME280;6847;48.830;9.116;2022-10-16T09:53:40;98095.50;;;25.93;61.02
13553;BME280;6847;48.830;9.116;2022-10-16T09:56:21;98108.16;;;26.47;60.73
13553;BME280;6847;48.830;9.116;2022-10-16T09:58:50;98109.41;;;27.16;59.45
13553;BME280;6847;48.830;9.116;2022-10-16T10:01:18;98099.69;;;27.81;58.57
13553;BME280;6847;48.830;9.116;2022-10-16T10:03:46;97941.88;;;27.23;58.04
13553;BME280;6847;48.830;9.116;2022-10-16T10:06:18;98114.50;;;28.54;58.10
13553;BME280;6847;48.830;9.116;2022-10-16T10:09:03;98100.88;;;28.34;58.41
13553;BME280;6847;48.830;9.116;2022-10-16T10:11:42;98124.06;;;28.56;58.68
13553;BME280;6847;48.830;9.116;2022-10-16T10:14:17;98112.19;;;28.73;58.60
13553;BME280;6847;48.830;9.116;2022-10-16T10:16:50;98124.69;;;29.04;57.94
13553;BME280;6847;48.830;9.116;2022-10-16T10:19:26;98116.31;;;29.04;58.44
13553;BME280;6847;48.830;9.116;2022-10-16T10:21:54;98051.69;;;28.74;57.71
13553;BME280;6847;48.830;9.116;2022-10-16T10:24:23;98136.31;;;29.35;57.67
13553;BME280;6847;48.830;9.116;2022-10-16T10:27:00;98071.78;;;29.61;56.73
13553;BME280;6847;48.830;9.116;2022-10-16T10:29:41;98129.16;;;30.55;55.96
13553;BME280;6847;48.830;9.116;2022-10-16T10:32:21;98116.31;;;30.75;55.73
13553;BME280;6847;48.830;9.116;2022-10-16T10:35:01;98125.91;;;30.67;56.37
13553;BME280;6847;48.830;9.116;2022-10-16T10:37:47;98126.75;;;30.64;56.48
13553;BME280;6847;48.830;9.116;2022-10-16T10:40:28;98138.72;;;30.64;56.04
13553;BME280;6847;48.830;9.116;2022-10-16T10:43:02;98070.16;;;30.24;56.25
13553;BME280;6847;48.830;9.116;2022-10-16T10:45:41;98106.84;;;30.33;55.91
13553;BME280;6847;48.830;9.116;2022-10-16T10:48:32;98127.63;;;30.04;56.08
13553;BME280;6847;48.830;9.116;2022-10-16T10:51:12;98118.44;;;29.93;55.81
13553;BME280;6847;48.830;9.116;2022-10-16T10:53:45;98134.66;;;30.76;54.43
13553;BME280;6847;48.830;9.116;2022-10-16T10:56:26;98127.72;;;31.82;52.44
13553;BME280;6847;48.830;9.116;2022-10-16T10:59:05;98133.53;;;32.43;51.66
13553;BME280;6847;48.830;9.116;2022-10-16T11:01:45;98139.13;;;32.46;51.89
13553;BME280;6847;48.830;9.116;2022-10-16T11:07:22;98132.75;;;32.42;52.03
13553;BME280;6847;48.830;9.116;2022-10-16T11:09:58;98127.72;;;31.78;52.69
13553;BME280;6847;48.830;9.116;2022-10-16T11:12:31;98124.63;;;31.66;52.99
13553;BME280;6847;48.830;9.116;2022-10-16T11:15:05;98131.53;;;32.43;51.54
13553;BME280;6847;48.830;9.116;2022-10-16T11:17:42;98132.78;;;33.10;50.53
13553;BME280;6847;48.830;9.116;2022-10-16T11:20:16;98132.94;;;32.96;50.34
13553;BME280;6847;48.830;9.116;2022-10-16T11:22:47;98126.69;;;32.85;50.64
13553;BME280;6847;48.830;9.116;2022-10-16T11:25:18;98092.09;;;32.61;50.94
13553;BME280;6847;48.830;9.116;2022-10-16T11:27:50;98079.88;;;32.44;51.15
13553;BME280;6847;48.830;9.116;2022-10-16T11:30:21;98099.06;;;32.46;51.43
13553;BME280;6847;48.830;9.116;2022-10-16T11:33:00;98124.69;;;32.82;50.90
13553;BME280;6847;48.830;9.116;2022-10-16T11:35:38;98122.19;;;33.21;50.13
13553;BME280;6847;48.830;9.116;2022-10-16T11:38:20;98135.06;;;33.76;49.77
13553;BME280;6847;48.830;9.116;2022-10-16T11:40:53;98131.78;;;34.04;49.36
13553;BME280;6847;48.830;9.116;2022-10-16T11:43:27;98099.09;;;34.14;48.87
13553;BME280;6847;48.830;9.116;2022-10-16T11:46:04;98123.22;;;34.11;48.91
13553;BME280;6847;48.830;9.116;2022-10-16T11:48:37;98127.03;;;34.25;49.02
13553;BME280;6847;48.830;9.116;2022-10-16T11:51:11;98072.91;;;33.97;48.19
13553;BME280;6847;48.830;9.116;2022-10-16T11:53:45;98132.25;;;34.23;48.50
13553;BME280;6847;48.830;9.116;2022-10-16T11:56:15;98128.13;;;34.07;48.75
13553;BME280;6847;48.830;9.116;2022-10-16T11:58:52;98125.16;;;33.91;49.16
13553;BME280;6847;48.830;9.116;2022-10-16T12:01:28;98124.88;;;33.86;48.53
13553;BME280;6847;48.830;9.116;2022-10-16T12:04:05;98128.28;;;33.70;49.10
13553;BME280;6847;48.830;9.116;2022-10-16T12:06:39;98120.28;;;33.45;49.31
13553;BME280;6847;48.830;9.116;2022-10-16T12:09:15;98107.00;;;33.19;49.16
13553;BME280;6847;48.830;9.116;2022-10-16T12:11:44;98107.84;;;33.16;48.84
13553;BME280;6847;48.830;9.116;2022-10-16T12:14:22;98110.75;;;33.08;48.65
13553;BME280;6847;48.830;9.116;2022-10-16T12:17:23;98113.69;;;32.98;48.70
13553;BME280;6847;48.830;9.116;2022-10-16T12:20:12;98106.00;;;32.71;48.83
13553;BME280;6847;48.830;9.116;2022-10-16T12:22:48;98114.38;;;32.41;48.69
13553;BME280;6847;48.830;9.116;2022-10-16T12:25:25;98108.19;;;32.19;48.83
13553;BME280;6847;48.830;9.116;2022-10-16T12:27:56;98109.84;;;32.10;48.76
13553;BME280;6847;48.830;9.116;2022-10-16T12:34:02;98117.63;;;33.04;47.46
13553;BME280;6847;48.830;9.116;2022-10-16T12:36:41;98082.19;;;33.44;45.88
13553;BME280;6847;48.830;9.116;2022-10-16T12:39:20;98119.69;;;34.31;45.66
13553;BME280;6847;48.830;9.116;2022-10-16T12:42:03;98118.09;;;34.30;45.64
13553;BME280;6847;48.830;9.116;2022-10-16T12:44:35;98120.28;;;34.42;45.34
13553;BME280;6847;48.830;9.116;2022-10-16T12:47:02;98123.91;;;34.62;45.23
13553;BME280;6847;48.830;9.116;2022-10-16T12:49:37;98114.25;;;35.03;44.60
13553;BME280;6847;48.830;9.116;2022-10-16T12:52:28;98129.69;;;35.50;44.02
13553;BME280;6847;48.830;9.116;2022-10-16T12:54:58;98131.59;;;35.89;43.44
13553;BME280;6847;48.830;9.116;2022-10-16T12:57:36;98129.09;;;36.08;43.30
13553;BME280;6847;48.830;9.116;2022-10-16T13:00:14;98122.34;;;35.89;43.59
13553;BME280;6847;48.830;9.116;2022-10-16T13:02:58;98105.38;;;35.40;44.03
13553;BME280;6847;48.830;9.116;2022-10-16T13:05:46;98137.75;;;35.32;44.26
13553;BME280;6847;48.830;9.116;2022-10-16T13:08:29;98124.06;;;34.95;44.51
13553;BME280;6847;48.830;9.116;2022-10-16T13:11:05;98125.13;;;34.61;44.57
13553;BME280;6847;48.830;9.116;2022-10-16T13:14:04;98129.44;;;34.23;44.95
13553;BME280;6847;48.830;9.116;2022-10-16T13:16:52;98062.69;;;33.33;44.84
13553;BME280;6847;48.830;9.116;2022-10-16T13:19:29;98128.19;;;33.50;45.42
13553;BME280;6847;48.830;9.116;2022-10-16T13:22:05;98124.34;;;33.40;44.65
13553;BME280;6847;48.830;9.116;2022-10-16T13:24:50;98122.13;;;33.28;44.55
13553;BME280;6847;48.830;9.116;2022-10-16T13:27:27;98101.91;;;32.80;44.50
13553;BME280;6847;48.830;9.116;2022-10-16T13:30:10;98133.72;;;32.62;44.90
13553;BME280;6847;48.830;9.116;2022-10-16T13:32:40;98126.19;;;32.22;45.14
13553;BME280;6847;48.830;9.116;2022-10-16T13:35:25;98133.25;;;31.85;45.18
13553;BME280;6847;48.830;9.116;2022-10-16T13:38:05;98107.16;;;31.44;45.53
13553;BME280;6847;48.830;9.116;2022-10-16T13:40:35;98136.84;;;31.31;45.18
13553;BME280;6847;48.830;9.116;2022-10-16T13:43:02;98122.97;;;31.02;45.37
13553;BME280;6847;48.830;9.116;2022-10-16T13:45:29;98046.19;;;30.27;45.70
13553;BME280;6847;48.830;9.116;2022-10-16T13:48:04;98125.91;;;30.74;45.23